Time;durP1;ratioP1;P1;durP2;ratioP2;P2;SDS_P1;SDS_P2;PMS_P1;PMS_P2;Temp;Humidity;BMP_temperature;BMP_pressure;BME280_temperature;BME280_humidity;BME280_pressure;Samples;Min_cycle;Max_cycle;Signal;HPM_P1;HPM_P2
2023/01/10 00:01:35;;;;;;;93.70;53.10;;;;;;;5.52;100.00;98039.04;274467;1260;22553;-87
2023/01/10 00:15:06;;;;;;;91.20;53.60;;;;;;;5.46;100.00;98052.11;279093;1250;23236;-87
2023/01/10 00:21:08;;;;;;;93.30;51.10;;;;;;;5.43;100.00;98060.13;276619;1254;22595;-87
2023/01/10 00:27:11;;;;;;;86.60;52.00;;;;;;;5.42;100.00;98062.45;276117;1254;22547;-87
2023/01/10 00:33:18;;;;;;;86.70;49.00;;;;;;;5.41;100.00;98070.80;276567;1254;22447;-87
2023/01/10 00:47:02;;;;;;;81.80;48.10;;;;;;;5.40;100.00;98075.21;279462;1251;22272;-87
2023/01/10 00:53:28;;;;;;;;;;;;;;;5.38;100.00;98082.68;279107;1254;22425;-87
2023/01/10 01:00:00;;;;;;;95.50;55.70;;;;;;;5.33;100.00;98089.80;279531;1254;22335;-87
2023/01/10 01:06:39;;;;;;;71.80;42.30;;;;;;;5.30;100.00;98097.76;279286;1254;22254;-87
2023/01/10 01:13:32;;;;;;;93.60;53.60;;;;;;;5.27;100.00;98101.64;279366;1254;22355;-87
2023/01/10 01:20:23;;;;;;;126.50;75.50;;;;;;;5.24;100.00;98103.69;279175;1254;23132;-87
2023/01/10 01:26:25;;;;;;;101.10;60.00;;;;;;;5.21;100.00;98106.27;276304;1254;22554;-87
2023/01/10 01:40:40;;;;;;;93.30;54.40;;;;;;;5.18;100.00;98112.02;277297;1254;22181;-86
2023/01/10 01:46:54;;;;;;;92.30;53.50;;;;;;;5.19;100.00;98120.27;276779;1254;22525;-87
2023/01/10 02:01:41;;;;;;;97.90;55.20;;;;;;;5.18;100.00;98124.13;277746;1254;22370;-87
2023/01/10 02:08:07;;;;;;;94.20;54.40;;;;;;;5.19;100.00;98127.70;277748;1254;22451;-87
2023/01/10 02:14:10;;;;;;;95.60;52.60;;;;;;;5.17;100.00;98130.00;276059;1254;22504;-87
2023/01/10 02:20:13;;;;;;;87.00;50.30;;;;;;;5.14;100.00;98132.52;276559;1251;24453;-87
2023/01/10 02:41:59;;;;;;;74.70;43.70;;;;;;;5.11;100.00;98142.82;276391;1254;22531;-89
2023/01/10 02:48:43;;;;;;;69.40;38.30;;;;;;;5.07;100.00;98151.52;279072;1242;22350;-87
2023/01/10 02:54:46;;;;;;;67.90;39.30;;;;;;;5.06;100.00;98161.10;279071;1254;24209;-88
2023/01/10 03:01:17;;;;;;;73.50;41.10;;;;;;;5.06;100.00;98162.11;275295;1246;23706;-86
2023/01/10 03:08:00;;;;;;;67.00;39.80;;;;;;;5.05;100.00;98171.23;276521;1250;22460;-87
2023/01/10 03:22:02;;;;;;;68.10;37.20;;;;;;;4.96;100.00;98184.30;276202;1254;22520;-87
2023/01/10 03:51:30;;;;;;;53.90;28.60;;;;;;;4.83;100.00;98231.09;279465;1254;22161;-87
2023/01/10 04:13:05;;;;;;;32.30;18.90;;;;;;;4.74;100.00;98269.23;275834;1254;22520;-86
2023/01/10 04:19:28;;;;;;;32.30;17.40;;;;;;;4.68;100.00;98277.14;279114;1247;23210;-87
2023/01/10 04:25:31;;;;;;;30.80;15.20;;;;;;;4.64;100.00;98279.93;276475;1250;24337;-87
2023/01/10 04:31:52;;;;;;;28.00;13.20;;;;;;;4.60;100.00;98283.55;276139;1254;22383;-87
2023/01/10 04:38:20;;;;;;;29.80;12.30;;;;;;;4.58;100.00;98298.29;277008;1254;22272;-87
2023/01/10 04:44:49;;;;;;;33.10;16.10;;;;;;;4.55;100.00;98313.48;277443;1255;22202;-87
2023/01/10 04:58:45;;;;;;;16.20;7.90;;;;;;;4.47;100.00;98334.04;276559;1255;23016;-86
2023/01/10 05:04:53;;;;;;;15.00;6.70;;;;;;;4.43;100.00;98345.79;275628;1254;22171;-86
2023/01/10 05:11:45;;;;;;;25.40;9.90;;;;;;;4.37;100.00;98357.02;279264;1254;23847;-86
2023/01/10 05:17:59;;;;;;;17.90;7.30;;;;;;;4.31;100.00;98372.97;276026;1254;22536;-87
2023/01/10 05:24:00;;;;;;;23.70;8.20;;;;;;;4.28;100.00;98383.04;275679;1254;22690;-87
2023/01/10 05:30:01;;;;;;;14.50;6.70;;;;;;;4.28;100.00;98390.31;275277;1254;22533;-86
2023/01/10 05:36:04;;;;;;;14.20;7.80;;;;;;;4.29;100.00;98396.92;274967;1254;22524;-88
2023/01/10 05:42:05;;;;;;;16.20;8.60;;;;;;;4.28;100.00;98411.28;274967;1254;22639;-89
2023/01/10 05:48:08;;;;;;;15.70;9.60;;;;;;;4.27;100.00;98420.55;275352;1254;22524;-87
2023/01/10 05:54:09;;;;;;;17.10;10.40;;;;;;;4.27;100.00;98429.08;275762;1254;22542;-87
2023/01/10 06:00:11;;;;;;;18.10;10.10;;;;;;;4.27;100.00;98439.36;274768;1254;23240;-86
2023/01/10 06:14:24;;;;;;;16.00;8.80;;;;;;;4.19;100.00;98459.66;275470;1254;24208;-86
2023/01/10 06:20:26;;;;;;;15.20;8.40;;;;;;;4.14;100.00;98472.15;276417;1254;25356;-86
2023/01/10 06:26:27;;;;;;;15.00;7.90;;;;;;;4.08;100.00;98481.27;275216;1254;23021;-87
2023/01/10 06:32:28;;;;;;;11.70;6.40;;;;;;;4.06;100.00;98496.98;275233;1254;22543;-86
2023/01/10 06:38:29;;;;;;;11.40;5.30;;;;;;;4.01;100.00;98509.99;276502;1254;22519;-86
2023/01/10 06:44:56;;;;;;;9.70;6.40;;;;;;;3.94;100.00;98511.80;275458;1254;22559;-86
2023/01/10 06:50:57;;;;;;;14.40;8.90;;;;;;;3.88;100.00;98522.69;275689;1254;22514;-87
2023/01/10 06:57:00;;;;;;;22.10;15.70;;;;;;;3.84;100.00;98526.05;275434;1254;23429;-86
2023/01/10 07:03:01;;;;;;;13.50;6.40;;;;;;;3.80;100.00;98530.17;276048;1254;23912;-87
2023/01/10 07:09:06;;;;;;;53.00;31.70;;;;;;;3.74;100.00;98537.98;275326;1254;23705;-88
2023/01/10 07:37:59;;;;;;;35.60;15.30;;;;;;;3.71;100.00;98572.39;275293;1254;23922;-94
2023/01/10 07:44:34;;;;;;;;;;;;;;;3.65;100.00;98577.75;271049;1254;23934;-93
2023/01/10 07:50:44;;;;;;;11.30;6.30;;;;;;;3.69;100.00;98573.92;275112;1254;22590;-93
2023/01/10 07:57:08;;;;;;;10.10;5.80;;;;;;;3.74;100.00;98579.29;274986;1254;22553;-94
2023/01/10 08:03:26;;;;;;;11.00;6.20;;;;;;;3.76;100.00;98583.74;274733;1254;22517;-94
2023/01/10 08:09:37;;;;;;;10.40;6.50;;;;;;;3.80;100.00;98595.64;274771;1254;22480;-95
2023/01/10 08:16:23;;;;;;;16.80;7.10;;;;;;;3.84;100.00;98609.11;274994;1254;22583;-93
2023/01/10 08:23:10;;;;;;;20.10;10.30;;;;;;;3.83;100.00;98618.46;275282;1254;25083;-94
2023/01/10 08:29:27;;;;;;;20.60;10.20;;;;;;;3.82;100.00;98623.15;275200;1254;22540;-93
2023/01/10 08:35:47;;;;;;;15.50;9.30;;;;;;;3.84;100.00;98630.65;274654;1252;22565;-95
2023/01/10 08:42:22;;;;;;;18.60;9.40;;;;;;;3.86;100.00;98641.61;275321;1254;22549;-94
2023/01/10 08:49:12;;;;;;;20.00;10.60;;;;;;;3.84;100.00;98651.74;276353;1241;22530;-94
2023/01/10 08:55:30;;;;;;;30.40;13.70;;;;;;;3.85;100.00;98671.13;275628;1251;22558;-93
2023/01/10 09:02:12;;;;;;;22.70;12.60;;;;;;;3.86;100.00;98678.50;275576;1254;22549;-95
2023/01/10 09:08:24;;;;;;;26.90;14.90;;;;;;;3.86;100.00;98690.42;275480;1254;22564;-94
2023/01/10 09:14:48;;;;;;;30.80;16.00;;;;;;;3.87;100.00;98697.83;275755;1254;22584;-94
2023/01/10 09:21:03;;;;;;;36.30;18.60;;;;;;;3.88;100.00;98699.85;275821;1254;22568;-93
2023/01/10 09:28:15;;;;;;;32.20;17.40;;;;;;;3.90;100.00;98705.10;276179;1239;43999;-93
2023/01/10 09:35:27;;;;;;;34.60;18.80;;;;;;;3.99;100.00;98709.09;275976;1254;23482;-93
2023/01/10 09:42:35;;;;;;;36.60;19.90;;;;;;;4.06;100.00;98719.95;276332;1254;22556;-94
2023/01/10 09:50:02;;;;;;;33.10;19.00;;;;;;;4.11;100.00;98719.17;275678;1254;22608;-94
2023/01/10 09:56:58;;;;;;;27.20;17.20;;;;;;;4.13;100.00;98725.73;275518;1254;23901;-94
2023/01/10 10:04:17;;;;;;;28.00;16.40;;;;;;;4.13;100.00;98736.58;275504;1254;26122;-94
2023/01/10 10:12:06;;;;;;;36.50;16.50;;;;;;;4.11;100.00;98750.28;275580;1254;22541;-94
2023/01/10 10:18:48;;;;;;;36.80;18.10;;;;;;;4.12;100.00;98760.09;275194;1254;22532;-93
2023/01/10 10:39:12;;;;;;;29.30;16.90;;;;;;;4.21;100.00;98764.91;267760;1280;22566;-87
2023/01/10 10:45:21;;;;;;;25.30;15.20;;;;;;;4.20;100.00;98772.16;268312;1278;136881;-86
2023/01/10 10:52:14;;;;;;;26.30;14.00;;;;;;;4.21;100.00;98785.98;270040;1278;22568;-87
2023/01/10 10:58:30;;;;;;;24.20;12.40;;;;;;;4.20;100.00;98795.08;270446;1278;22380;-87
2023/01/10 11:04:55;;;;;;;18.30;10.30;;;;;;;4.18;100.00;98803.14;269858;1276;22408;-86
2023/01/10 11:11:28;;;;;;;13.60;8.20;;;;;;;4.15;100.00;98807.61;272282;1284;22231;-87
2023/01/10 11:17:33;;;;;;;11.60;7.80;;;;;;;4.11;100.00;98820.48;272008;1279;22442;-87
2023/01/10 11:24:25;;;;;;;12.10;7.20;;;;;;;4.10;100.00;98833.15;272166;1279;22445;-87
2023/01/10 11:30:52;;;;;;;10.00;6.10;;;;;;;4.09;100.00;98841.30;272336;1278;23589;-87
2023/01/10 11:59:37;;;;;;;17.20;8.80;;;;;;;4.15;100.00;98879.70;271213;1278;22566;-87
2023/01/10 12:05:52;;;;;;;18.10;9.10;;;;;;;4.18;100.00;98884.25;269532;1278;22588;-88
2023/01/10 12:12:04;;;;;;;17.40;8.50;;;;;;;4.19;100.00;98898.00;270957;1278;23256;-88
2023/01/10 12:18:06;;;;;;;16.10;7.80;;;;;;;4.18;100.00;98909.91;268920;1278;25255;-88
2023/01/10 12:31:27;;;;;;;10.10;5.70;;;;;;;4.15;100.00;98937.73;273353;1277;22391;-88
2023/01/10 12:45:56;;;;;;;15.30;8.10;;;;;;;4.13;100.00;98949.81;271277;1272;22918;-87
2023/01/10 12:52:23;;;;;;;14.40;9.00;;;;;;;4.15;100.00;98945.87;272494;1276;22550;-87
2023/01/10 12:58:57;;;;;;;15.30;9.70;;;;;;;4.19;100.00;98945.77;270415;1272;22492;-87
2023/01/10 13:05:00;;;;;;;19.60;10.30;;;;;;;4.21;100.00;98948.39;271063;1272;25519;-87
2023/01/10 13:11:27;;;;;;;22.80;13.00;;;;;;;4.23;100.00;98952.90;269453;1271;22427;-87
2023/01/10 13:25:05;;;;;;;33.90;14.90;;;;;;;4.20;100.00;98982.80;269503;1272;24296;-88
2023/01/10 13:31:20;;;;;;;24.00;14.90;;;;;;;4.18;100.00;98993.72;270509;1272;22566;-87
2023/01/10 13:45:03;;;;;;;29.00;17.20;;;;;;;4.18;100.00;99009.81;273151;1272;22335;-88
2023/01/10 13:51:12;;;;;;;30.30;16.90;;;;;;;4.21;100.00;99022.70;273272;1273;23482;-88
2023/01/10 13:58:03;;;;;;;31.90;17.30;;;;;;;4.22;100.00;99030.80;271329;1268;22505;-87
2023/01/10 14:04:55;;;;;;;28.30;14.90;;;;;;;4.25;100.00;99027.51;273565;1269;22482;-87
2023/01/10 14:11:50;;;;;;;28.10;16.60;;;;;;;4.28;100.00;99040.39;273891;1269;22211;-87
2023/01/10 14:18:25;;;;;;;29.80;17.70;;;;;;;4.17;100.00;99042.55;272318;1268;22265;-87
2023/01/10 15:03:19;;;;;;;46.30;25.30;;;;;;;4.27;100.00;99068.45;273120;1273;22307;-89
2023/01/10 15:09:24;;;;;;;49.10;26.60;;;;;;;4.26;100.00;99067.89;272571;1272;23039;-88
2023/01/10 15:15:53;;;;;;;50.40;24.40;;;;;;;4.25;100.00;99062.20;273026;1272;22247;-87
2023/01/10 15:22:44;;;;;;;43.10;22.90;;;;;;;4.23;100.00;99065.23;273075;1268;22480;-88
2023/01/10 15:29:08;;;;;;;48.60;26.00;;;;;;;4.21;100.00;99084.31;273666;1274;22202;-88
2023/01/10 15:35:34;;;;;;;42.00;24.70;;;;;;;4.18;100.00;99086.91;273708;1276;22290;-88
2023/01/10 15:41:36;;;;;;;38.70;23.80;;;;;;;4.15;100.00;99093.32;273964;1269;22519;-88
2023/01/10 15:54:58;;;;;;;52.00;28.80;;;;;;;4.12;100.00;99123.85;273765;1276;22458;-89
2023/01/10 16:01:24;;;;;;;54.90;31.20;;;;;;;4.11;100.00;99130.70;273555;1269;22171;-88
2023/01/10 16:08:17;;;;;;;55.80;34.30;;;;;;;4.11;100.00;99138.05;270371;1269;22521;-88
2023/01/10 16:14:45;;;;;;;57.80;35.80;;;;;;;4.09;100.00;99148.36;271151;1270;23018;-88
2023/01/10 16:20:48;;;;;;;62.60;37.20;;;;;;;4.06;100.00;99150.81;271252;1268;23248;-88
2023/01/10 16:26:51;;;;;;;56.10;35.60;;;;;;;4.03;100.00;99157.37;272445;1269;25623;-88
2023/01/10 16:32:53;;;;;;;59.70;38.30;;;;;;;4.00;100.00;99166.75;271336;1269;24341;-88
2023/01/10 16:38:54;;;;;;;57.10;34.00;;;;;;;3.99;100.00;99182.41;270955;1268;25289;-87
2023/01/10 16:45:01;;;;;;;57.20;31.60;;;;;;;3.99;100.00;99194.64;272027;1269;25428;-87
2023/01/10 16:51:17;;;;;;;55.30;33.50;;;;;;;3.99;100.00;99207.88;272264;1273;22249;-87
2023/01/10 16:58:10;;;;;;;53.50;33.60;;;;;;;4.00;100.00;99219.81;273491;1270;22676;-88
2023/01/10 17:04:16;;;;;;;62.10;38.40;;;;;;;4.00;100.00;99230.42;272569;1270;23365;-87
2023/01/10 17:10:17;;;;;;;62.50;39.70;;;;;;;4.00;100.00;99233.77;270675;1269;22382;-87
2023/01/10 17:16:19;;;;;;;61.50;39.30;;;;;;;3.99;100.00;99239.29;270745;1270;22543;-89
2023/01/10 17:22:20;;;;;;;71.30;49.00;;;;;;;3.98;100.00;99248.46;270488;1270;22546;-87
2023/01/10 17:29:12;;;;;;;71.50;49.60;;;;;;;3.96;100.00;99256.98;270458;1270;22295;-88
2023/01/10 17:35:13;;;;;;;60.00;40.20;;;;;;;3.94;100.00;99263.40;273119;1270;22448;-88
2023/01/10 17:41:15;;;;;;;57.50;35.20;;;;;;;3.93;100.00;99271.01;270408;1268;22525;-88
2023/01/10 17:48:14;;;;;;;58.90;35.30;;;;;;;3.93;100.00;99279.59;269553;1269;22568;-88
2023/01/10 17:55:06;;;;;;;65.10;38.50;;;;;;;3.92;100.00;99279.30;269740;1269;22609;-88
2023/01/10 18:01:17;;;;;;;73.50;42.30;;;;;;;3.91;100.00;99284.16;271278;1269;23293;-87
2023/01/10 18:07:34;;;;;;;76.50;43.30;;;;;;;3.93;100.00;99285.86;270514;1269;22586;-89
2023/01/10 18:13:35;;;;;;;75.90;43.50;;;;;;;3.95;100.00;99294.74;271913;1269;22596;-88
2023/01/10 18:19:38;;;;;;;77.50;44.60;;;;;;;3.97;100.00;99296.55;271760;1269;22231;-89
2023/01/10 18:25:39;;;;;;;86.40;48.90;;;;;;;3.99;100.00;99293.94;272727;1273;23620;-88
2023/01/10 18:32:06;;;;;;;83.60;48.70;;;;;;;4.01;100.00;99295.33;273322;1268;22505;-88
2023/01/10 18:38:08;;;;;;;96.80;51.30;;;;;;;4.02;100.00;99301.04;272165;1269;22481;-88
2023/01/10 18:44:09;;;;;;;97.10;52.70;;;;;;;4.04;100.00;99299.95;272095;1267;23590;-88
2023/01/10 18:50:10;;;;;;;96.90;51.30;;;;;;;4.06;100.00;99299.23;272124;1266;22667;-88
2023/01/10 18:56:26;;;;;;;103.60;53.30;;;;;;;4.06;100.00;99303.98;272785;1266;22998;-89
2023/01/10 19:02:56;;;;;;;65.10;38.00;;;;;;;4.08;100.00;99304.67;273340;1270;22061;-88
2023/01/10 19:09:06;;;;;;;104.80;54.80;;;;;;;4.08;100.00;99315.23;273468;1267;22414;-88
2023/01/10 19:15:33;;;;;;;98.80;57.90;;;;;;;4.09;100.00;99323.21;272549;1267;22220;-88
2023/01/10 19:28:52;;;;;;;98.80;57.60;;;;;;;4.11;100.00;99327.07;273362;1267;22240;-88
2023/01/10 19:34:53;;;;;;;101.10;52.40;;;;;;;4.11;100.00;99329.77;271584;1262;22563;-88
2023/01/10 19:40:55;;;;;;;94.70;49.20;;;;;;;4.08;100.00;99334.95;271461;1266;22704;-88
2023/01/10 19:46:56;;;;;;;86.20;48.10;;;;;;;4.07;100.00;99340.38;271016;1266;26617;-88
2023/01/10 19:53:25;;;;;;;88.30;47.70;;;;;;;4.06;100.00;99342.20;271663;1266;22170;-87
2023/01/10 19:59:54;;;;;;;80.10;44.60;;;;;;;4.05;100.00;99342.33;270641;1267;22608;-88
2023/01/10 20:06:01;;;;;;;84.10;44.30;;;;;;;4.04;100.00;99346.92;272908;1267;22227;-88
2023/01/10 20:12:02;;;;;;;93.80;49.50;;;;;;;4.03;100.00;99354.70;272334;1266;22532;-88
2023/01/10 20:18:04;;;;;;;89.30;48.50;;;;;;;4.03;100.00;99355.47;270640;1266;23546;-89
2023/01/10 20:32:06;;;;;;;92.30;52.10;;;;;;;4.02;100.00;99363.08;273712;1266;22556;-88
2023/01/10 20:38:45;;;;;;;95.30;52.10;;;;;;;4.04;100.00;99364.16;273925;1258;22228;-89
2023/01/10 20:44:46;;;;;;;89.50;46.80;;;;;;;4.06;100.00;99375.40;273676;1266;22247;-89
2023/01/10 20:50:47;;;;;;;86.60;46.60;;;;;;;4.07;100.00;99382.67;273564;1266;22219;-88
2023/01/10 20:57:38;;;;;;;87.50;47.30;;;;;;;4.08;100.00;99388.59;273961;1268;22389;-88
2023/01/10 21:03:41;;;;;;;89.70;48.10;;;;;;;4.08;100.00;99388.95;273022;1267;23705;-89
2023/01/10 21:10:33;;;;;;;90.70;46.80;;;;;;;4.07;100.00;99398.23;273536;1266;22531;-88
2023/01/10 21:32:50;;;;;;;94.90;48.00;;;;;;;4.03;100.00;99401.77;274165;1257;22274;-87
2023/01/10 21:39:38;;;;;;;84.20;44.70;;;;;;;4.01;100.00;99404.16;274103;1270;22201;-88
2023/01/10 21:46:47;;;;;;;83.80;44.90;;;;;;;3.99;100.00;99403.05;274046;1268;22948;-88
2023/01/10 21:53:14;;;;;;;86.30;44.50;;;;;;;3.96;100.00;99403.44;273627;1267;22587;-88
2023/01/10 21:59:40;;;;;;;86.30;43.50;;;;;;;3.93;100.00;99410.08;274200;1256;22440;-88
2023/01/10 22:21:29;;;;;;;78.10;40.50;;;;;;;3.87;100.00;99416.29;274277;1266;22208;-88
2023/01/10 22:28:20;;;;;;;82.20;41.70;;;;;;;3.85;100.00;99411.98;273904;1272;22209;-89
2023/01/10 22:34:22;;;;;;;80.30;42.70;;;;;;;3.85;100.00;99413.38;273152;1255;23884;-88
2023/01/10 22:40:23;;;;;;;86.90;45.30;;;;;;;3.83;100.00;99413.02;264529;1266;9258092;-89
2023/01/10 22:46:25;;;;;;;71.80;37.90;;;;;;;3.81;100.00;99415.73;272259;1265;22207;-88
2023/01/10 22:52:51;;;;;;;86.90;44.00;;;;;;;3.79;100.00;99414.87;272131;1265;22264;-89
2023/01/10 22:59:49;;;;;;;77.00;42.30;;;;;;;3.79;100.00;99410.54;273480;1266;22116;-88
2023/01/10 23:06:43;;;;;;;81.00;43.60;;;;;;;3.80;100.00;99416.99;273892;1266;22338;-88
2023/01/10 23:12:44;;;;;;;93.00;48.50;;;;;;;3.80;100.00;99423.63;271728;1250;22497;-88
2023/01/10 23:18:47;;;;;;;85.20;45.40;;;;;;;3.79;100.00;99421.51;274257;1265;23300;-88
2023/01/10 23:24:52;;;;;;;77.60;40.00;;;;;;;3.78;100.00;99415.89;273881;1272;23438;-88
2023/01/10 23:38:53;;;;;;;;;;;;;;;3.75;100.00;99423.52;274163;1262;22442;-88
2023/01/10 23:44:54;;;;;;;77.00;39.20;;;;;;;3.72;100.00;99426.63;271431;1265;22624;-88
2023/01/10 23:51:25;;;;;;;71.70;39.60;;;;;;;3.71;100.00;99419.94;269950;1258;22552;-88
